Time;durP1;ratioP1;P1;durP2;ratioP2;P2;SDS_P1;SDS_P2;PMS_P1;PMS_P2;Temp;Humidity;BMP_temperature;BMP_pressure;BME280_temperature;BME280_humidity;BME280_pressure;Samples;Min_cycle;Max_cycle;Signal;HPM_P1;HPM_P2
2022/05/17 00:01:25;;;;;;;0.30;0.20;;;15.40;99.90;;;;;;5078760;28;20525;-94
2022/05/17 00:03:52;;;;;;;0.30;0.20;;;15.50;99.90;;;;;;5074891;28;20477;-94
2022/05/17 00:06:20;;;;;;;0.30;0.20;;;15.60;99.90;;;;;;5076763;28;20455;-94
2022/05/17 00:08:49;;;;;;;0.30;0.20;;;15.60;99.90;;;;;;5074288;28;20463;-93
2022/05/17 00:11:16;;;;;;;0.30;0.20;;;15.60;99.90;;;;;;5068757;28;20471;-94
2022/05/17 00:13:45;;;;;;;0.30;0.20;;;15.60;99.90;;;;;;5067623;28;20497;-94
2022/05/17 00:16:12;;;;;;;0.30;0.20;;;15.60;99.90;;;;;;5081219;28;20519;-92
2022/05/17 00:18:40;;;;;;;0.30;0.20;;;15.60;99.90;;;;;;5079452;28;20495;-94
2022/05/17 00:21:09;;;;;;;0.30;0.20;;;15.60;99.90;;;;;;5076762;28;20907;-94
2022/05/17 00:23:37;;;;;;;0.30;0.20;;;15.60;99.90;;;;;;5070152;28;21081;-94
2022/05/17 00:26:05;;;;;;;0.30;0.20;;;15.60;99.90;;;;;;5075004;28;20489;-93
2022/05/17 00:28:32;;;;;;;0.30;0.20;;;15.60;99.90;;;;;;5069867;28;20462;-94
2022/05/17 00:31:01;;;;;;;0.30;0.20;;;15.60;99.90;;;;;;5079226;28;20465;-93
2022/05/17 00:33:28;;;;;;;0.30;0.20;;;15.60;99.90;;;;;;5076125;28;20504;-93
2022/05/17 00:35:55;;;;;;;0.30;0.20;;;15.60;99.90;;;;;;5072391;28;20473;-94
2022/05/17 00:38:22;;;;;;;0.30;0.20;;;15.60;99.90;;;;;;5078583;28;20646;-93
2022/05/17 00:40:50;;;;;;;0.30;0.20;;;15.50;99.90;;;;;;5077327;28;20539;-93
2022/05/17 00:44:42;;;;;;;0.30;0.20;;;15.50;99.90;;;;;;5096746;28;20442;-93
2022/05/17 00:46:23;;;;;;;0.30;0.20;;;15.50;99.90;;;;;;5105903;28;20450;-94
2022/05/17 00:48:52;;;;;;;0.30;0.20;;;15.40;99.90;;;;;;5094503;28;20516;-93
2022/05/17 00:51:22;;;;;;;0.30;0.20;;;15.40;99.90;;;;;;5094275;28;21021;-93
2022/05/17 00:53:50;;;;;;;0.30;0.20;;;15.40;99.90;;;;;;5071551;28;20980;-93
2022/05/17 00:56:22;;;;;;;0.30;0.20;;;15.40;99.90;;;;;;5072366;28;20473;-93
2022/05/17 00:58:54;;;;;;;1.60;0.80;;;15.30;99.90;;;;;;5080988;28;20495;-93
2022/05/17 01:01:26;;;;;;;0.30;0.20;;;15.30;99.90;;;;;;5075965;28;20524;-94
2022/05/17 01:03:57;;;;;;;0.30;0.20;;;15.30;99.90;;;;;;5077728;28;20618;-93
2022/05/17 01:06:28;;;;;;;0.30;0.20;;;15.30;99.90;;;;;;5069340;28;20544;-94
2022/05/17 01:08:55;;;;;;;0.30;0.20;;;15.40;99.90;;;;;;5072679;28;20978;-93
2022/05/17 01:11:22;;;;;;;0.30;0.20;;;15.30;99.90;;;;;;5078257;28;20466;-93
2022/05/17 01:16:36;;;;;;;0.30;0.20;;;15.20;99.90;;;;;;5070080;28;20940;-93
2022/05/17 01:19:05;;;;;;;0.30;0.20;;;15.20;99.90;;;;;;5066562;28;20488;-93
2022/05/17 01:21:33;;;;;;;0.30;0.20;;;15.30;99.90;;;;;;5070594;28;20471;-93
2022/05/17 01:24:00;;;;;;;0.30;0.20;;;15.20;99.90;;;;;;5071903;28;20558;-95
2022/05/17 01:26:31;;;;;;;0.30;0.20;;;15.30;99.90;;;;;;5070180;28;20469;-94
2022/05/17 01:28:58;;;;;;;0.30;0.20;;;15.30;99.90;;;;;;5066137;28;20871;-95
2022/05/17 01:31:27;;;;;;;0.30;0.20;;;15.30;99.90;;;;;;5068019;28;20882;-95
2022/05/17 01:33:54;;;;;;;0.97;0.60;;;15.30;99.90;;;;;;5065521;28;20514;-94
2022/05/17 01:36:23;;;;;;;0.30;0.20;;;15.30;99.90;;;;;;5072367;28;20460;-94
2022/05/17 01:38:52;;;;;;;0.30;0.20;;;15.40;99.90;;;;;;5064687;28;21163;-95
2022/05/17 01:41:20;;;;;;;0.30;0.20;;;15.50;99.90;;;;;;5070888;28;20520;-94
2022/05/17 01:43:47;;;;;;;0.30;0.20;;;15.40;99.90;;;;;;5070116;28;20464;-94
2022/05/17 01:46:14;;;;;;;0.30;0.20;;;15.50;99.90;;;;;;5072461;28;20476;-92
2022/05/17 01:48:41;;;;;;;0.30;0.20;;;15.30;99.90;;;;;;5070922;28;20529;-93
2022/05/17 01:51:10;;;;;;;0.30;0.20;;;15.30;99.90;;;;;;5073160;28;20460;-93
2022/05/17 01:53:37;;;;;;;0.30;0.20;;;15.30;99.90;;;;;;5071200;28;20467;-92
2022/05/17 01:56:07;;;;;;;0.30;0.20;;;15.30;99.90;;;;;;5069305;28;20478;-93
2022/05/17 01:58:35;;;;;;;0.30;0.20;;;15.40;99.90;;;;;;5075957;28;20479;-93
2022/05/17 02:01:03;;;;;;;0.30;0.20;;;15.30;99.90;;;;;;5066519;28;20472;-93
2022/05/17 02:03:30;;;;;;;0.30;0.20;;;15.30;99.90;;;;;;5072844;28;20490;-93
2022/05/17 02:05:57;;;;;;;0.30;0.20;;;15.30;99.90;;;;;;5067540;28;20455;-94
2022/05/17 02:08:24;;;;;;;0.30;0.20;;;15.40;99.90;;;;;;5073270;28;20985;-94
2022/05/17 02:10:51;;;;;;;0.30;0.20;;;15.40;99.90;;;;;;5065668;28;20968;-94
2022/05/17 02:13:20;;;;;;;0.30;0.20;;;15.30;99.90;;;;;;5072131;28;20471;-93
2022/05/17 02:15:47;;;;;;;0.30;0.20;;;15.30;99.90;;;;;;5066720;28;20454;-93
2022/05/17 02:18:14;;;;;;;0.30;0.20;;;15.40;99.90;;;;;;5072602;28;20484;-94
2022/05/17 02:20:42;;;;;;;0.30;0.20;;;15.30;99.90;;;;;;5069765;28;20512;-93
2022/05/17 02:23:09;;;;;;;0.30;0.20;;;15.40;99.90;;;;;;5067850;28;20998;-94
2022/05/17 02:25:36;;;;;;;0.30;0.20;;;15.40;99.90;;;;;;5070068;28;20554;-94
2022/05/17 02:28:04;;;;;;;0.30;0.20;;;15.40;99.90;;;;;;5071544;28;20458;-94
2022/05/17 02:30:33;;;;;;;0.30;0.20;;;15.50;99.90;;;;;;5072286;28;20456;-93
2022/05/17 02:33:00;;;;;;;0.30;0.20;;;15.40;99.90;;;;;;5070858;28;20435;-94
2022/05/17 02:35:27;;;;;;;0.30;0.30;;;15.40;99.90;;;;;;5076755;28;20990;-95
2022/05/17 02:37:54;;;;;;;0.30;0.20;;;15.20;99.90;;;;;;5076453;28;20886;-93
2022/05/17 02:40:21;;;;;;;0.67;0.57;;;15.20;99.90;;;;;;5075117;28;20470;-95
2022/05/17 02:42:48;;;;;;;0.30;0.20;;;15.10;99.90;;;;;;5072748;28;20463;-95
2022/05/17 02:45:15;;;;;;;0.30;0.20;;;15.00;99.90;;;;;;5077179;28;20928;-95
2022/05/17 02:47:44;;;;;;;0.30;0.20;;;14.90;99.90;;;;;;5085226;28;20452;-94
2022/05/17 02:50:11;;;;;;;0.30;0.20;;;14.90;99.90;;;;;;5073811;28;20513;-94
2022/05/17 02:52:39;;;;;;;0.30;0.20;;;14.90;99.90;;;;;;5076169;28;20459;-95
2022/05/17 02:55:07;;;;;;;0.30;0.20;;;14.90;99.90;;;;;;5079954;28;20512;-94
2022/05/17 02:57:34;;;;;;;0.30;0.20;;;14.80;99.90;;;;;;5077002;28;20476;-94
2022/05/17 03:00:02;;;;;;;0.30;0.20;;;14.80;99.90;;;;;;5069988;28;21080;-94
2022/05/17 03:02:29;;;;;;;0.30;0.20;;;14.80;99.90;;;;;;5074141;28;20462;-94
2022/05/17 03:04:57;;;;;;;0.30;0.20;;;14.90;99.90;;;;;;5076246;28;20879;-94
2022/05/17 03:07:24;;;;;;;0.30;0.20;;;14.90;99.90;;;;;;5068360;28;20975;-95
2022/05/17 03:09:51;;;;;;;0.30;0.20;;;14.90;99.90;;;;;;5077101;28;20535;-95
2022/05/17 03:12:18;;;;;;;0.30;0.20;;;15.00;99.90;;;;;;5086959;28;20524;-94
2022/05/17 03:14:45;;;;;;;0.30;0.20;;;15.00;99.90;;;;;;5109089;28;20442;-95
2022/05/17 03:17:13;;;;;;;0.30;0.20;;;15.00;99.90;;;;;;5088857;28;21183;-94
2022/05/17 03:19:40;;;;;;;0.30;0.20;;;14.90;99.90;;;;;;5076807;28;20498;-95
2022/05/17 03:22:10;;;;;;;0.30;0.20;;;14.90;99.90;;;;;;5077429;28;20925;-95
2022/05/17 03:24:38;;;;;;;0.30;0.20;;;14.90;99.90;;;;;;5083760;28;20573;-95
2022/05/17 03:27:05;;;;;;;0.40;0.20;;;14.90;99.90;;;;;;5070473;28;20470;-93
2022/05/17 03:29:33;;;;;;;0.30;0.20;;;14.90;99.90;;;;;;5074488;28;20530;-93
2022/05/17 03:32:00;;;;;;;0.30;0.20;;;14.80;99.90;;;;;;5081339;28;20461;-94
2022/05/17 03:34:27;;;;;;;0.30;0.20;;;14.80;99.90;;;;;;5072630;28;20464;-95
2022/05/17 03:36:54;;;;;;;0.30;0.20;;;14.80;99.90;;;;;;5066045;28;20451;-95
2022/05/17 03:39:23;;;;;;;0.30;0.20;;;14.80;99.90;;;;;;5078356;28;20534;-94
2022/05/17 03:41:50;;;;;;;0.30;0.20;;;14.90;99.90;;;;;;5074168;28;20537;-92
2022/05/17 03:44:17;;;;;;;0.30;0.20;;;14.90;99.90;;;;;;5072272;28;20474;-94
2022/05/17 03:46:44;;;;;;;0.30;0.20;;;15.00;99.90;;;;;;5090270;28;20499;-94
2022/05/17 03:49:12;;;;;;;0.30;0.20;;;15.00;99.90;;;;;;5110199;28;20489;-94
2022/05/17 03:51:39;;;;;;;0.30;0.20;;;15.00;99.90;;;;;;5087319;28;20472;-94
2022/05/17 03:54:07;;;;;;;0.30;0.20;;;15.00;99.90;;;;;;5075592;28;20961;-94
2022/05/17 03:56:35;;;;;;;0.30;0.20;;;15.00;99.90;;;;;;5082291;28;20471;-93
2022/05/17 03:59:02;;;;;;;0.30;0.20;;;15.10;99.90;;;;;;5078038;28;20495;-94
2022/05/17 04:01:29;;;;;;;0.30;0.20;;;15.10;99.90;;;;;;5085876;28;20848;-94
2022/05/17 04:03:56;;;;;;;0.30;0.20;;;15.10;99.90;;;;;;5080934;28;20532;-94
2022/05/17 04:06:23;;;;;;;0.30;0.20;;;15.10;99.90;;;;;;5071020;28;20502;-95
2022/05/17 04:08:50;;;;;;;0.30;0.20;;;15.10;99.90;;;;;;5077442;28;20463;-94
2022/05/17 04:11:18;;;;;;;0.30;0.20;;;15.10;99.90;;;;;;5079662;28;20547;-94
2022/05/17 04:13:47;;;;;;;0.30;0.20;;;15.10;99.90;;;;;;5078160;28;20539;-94
2022/05/17 04:16:14;;;;;;;0.30;0.20;;;15.10;99.90;;;;;;5074436;28;20519;-94
2022/05/17 04:18:41;;;;;;;0.30;0.20;;;15.10;99.90;;;;;;5070928;28;20778;-94
2022/05/17 04:21:08;;;;;;;0.30;0.20;;;15.10;99.90;;;;;;5069381;28;20506;-94
2022/05/17 04:23:37;;;;;;;0.30;0.20;;;15.10;99.90;;;;;;5068917;28;20510;-95
2022/05/17 04:26:04;;;;;;;0.40;0.30;;;15.00;99.90;;;;;;5067739;28;20467;-95
2022/05/17 04:28:32;;;;;;;0.30;0.20;;;15.00;99.90;;;;;;5070292;28;20525;-94
2022/05/17 04:31:00;;;;;;;0.40;0.30;;;15.00;99.90;;;;;;5068876;28;20530;-94
2022/05/17 04:33:27;;;;;;;0.30;0.20;;;14.90;99.90;;;;;;5070261;28;20467;-94
2022/05/17 04:35:54;;;;;;;0.30;0.20;;;14.90;99.90;;;;;;5072178;28;20524;-94
2022/05/17 04:38:21;;;;;;;0.30;0.20;;;15.00;99.90;;;;;;5071540;28;20537;-94
2022/05/17 04:40:49;;;;;;;0.30;0.20;;;14.90;99.90;;;;;;5078501;28;20527;-95
2022/05/17 04:43:16;;;;;;;0.30;0.20;;;14.90;99.90;;;;;;5075690;28;20532;-95
2022/05/17 04:45:44;;;;;;;0.30;0.20;;;14.90;99.90;;;;;;5079728;28;20464;-94
2022/05/17 04:48:13;;;;;;;0.30;0.20;;;14.90;99.90;;;;;;5072994;28;20611;-95
2022/05/17 04:50:40;;;;;;;0.30;0.30;;;14.90;99.90;;;;;;5073729;28;21408;-94
2022/05/17 04:53:07;;;;;;;0.30;0.20;;;14.90;99.90;;;;;;5068409;28;20461;-95
2022/05/17 04:55:34;;;;;;;0.30;0.20;;;14.90;99.90;;;;;;5072066;28;20463;-95
2022/05/17 04:58:01;;;;;;;0.30;0.20;;;14.90;99.90;;;;;;5074531;28;20860;-95
2022/05/17 05:00:29;;;;;;;0.30;0.20;;;14.90;99.90;;;;;;5069731;28;20484;-95
2022/05/17 05:02:56;;;;;;;0.30;0.20;;;14.90;99.90;;;;;;5062384;28;20808;-94
2022/05/17 05:05:25;;;;;;;0.30;0.20;;;15.00;99.90;;;;;;5065559;28;20470;-94
2022/05/17 05:07:53;;;;;;;0.40;0.20;;;15.00;99.90;;;;;;5067039;28;20915;-95
2022/05/17 05:10:20;;;;;;;0.30;0.20;;;15.00;99.90;;;;;;5067143;28;20543;-95
2022/05/17 05:12:48;;;;;;;0.30;0.20;;;15.00;99.90;;;;;;5071046;28;20454;-94
2022/05/17 05:15:16;;;;;;;0.30;0.20;;;15.00;99.90;;;;;;5066773;28;20487;-94
2022/05/17 05:17:43;;;;;;;0.30;0.20;;;15.10;99.90;;;;;;5074327;28;20471;-95
2022/05/17 05:20:15;;;;;;;0.40;0.30;;;15.10;99.90;;;;;;5072298;28;20491;-94
2022/05/17 05:22:43;;;;;;;0.30;0.20;;;15.10;99.90;;;;;;5071492;28;20499;-94
2022/05/17 05:25:11;;;;;;;0.40;0.20;;;15.10;99.90;;;;;;5068305;28;20450;-93
2022/05/17 05:27:40;;;;;;;0.30;0.20;;;15.00;99.90;;;;;;5075511;28;20519;-94
2022/05/17 05:30:09;;;;;;;0.30;0.20;;;15.00;99.90;;;;;;5072912;28;20452;-95
2022/05/17 05:32:36;;;;;;;0.30;0.20;;;14.90;99.90;;;;;;5070593;28;20457;-94
2022/05/17 05:35:04;;;;;;;0.30;0.20;;;14.90;99.90;;;;;;5072224;28;20470;-92
2022/05/17 05:37:31;;;;;;;0.57;0.37;;;14.90;99.90;;;;;;5066925;28;20459;-94
2022/05/17 05:40:00;;;;;;;0.30;0.20;;;14.90;99.90;;;;;;5066660;28;20490;-94
2022/05/17 05:42:27;;;;;;;0.30;0.20;;;14.90;99.90;;;;;;5077592;28;20450;-93
2022/05/17 05:44:54;;;;;;;0.30;0.20;;;14.90;99.90;;;;;;5075030;28;21053;-94
2022/05/17 05:47:21;;;;;;;0.40;0.40;;;15.00;99.90;;;;;;5067763;28;20446;-95
2022/05/17 05:49:48;;;;;;;0.30;0.20;;;15.10;99.90;;;;;;5069711;28;20470;-93
2022/05/17 05:52:15;;;;;;;0.30;0.20;;;15.10;99.90;;;;;;5070818;28;21026;-95
2022/05/17 05:54:42;;;;;;;0.30;0.20;;;15.10;99.90;;;;;;5071790;28;20461;-95
2022/05/17 05:57:11;;;;;;;0.30;0.20;;;15.10;99.90;;;;;;5067598;28;20467;-93
2022/05/17 05:59:38;;;;;;;0.30;0.20;;;15.20;99.90;;;;;;5069353;28;20541;-93
2022/05/17 06:02:06;;;;;;;0.30;0.20;;;15.20;99.90;;;;;;5067178;28;20509;-94
2022/05/17 06:04:34;;;;;;;0.30;0.20;;;15.30;99.90;;;;;;5068826;28;20456;-93
2022/05/17 06:07:01;;;;;;;0.30;0.20;;;15.30;99.90;;;;;;5070856;28;20520;-94
2022/05/17 06:09:28;;;;;;;0.30;0.20;;;15.30;99.90;;;;;;5074838;28;20512;-94
2022/05/17 06:11:55;;;;;;;0.30;0.20;;;15.30;99.90;;;;;;5072759;28;20465;-93
2022/05/17 06:14:24;;;;;;;0.30;0.20;;;15.40;99.90;;;;;;5069678;28;20481;-95
2022/05/17 06:16:53;;;;;;;0.40;0.20;;;15.40;99.90;;;;;;5074051;28;20457;-93
2022/05/17 06:19:22;;;;;;;0.30;0.20;;;15.60;99.90;;;;;;5071852;28;20481;-94
2022/05/17 06:21:49;;;;;;;0.30;0.20;;;15.60;99.90;;;;;;5071192;28;20452;-93
2022/05/17 06:24:17;;;;;;;0.30;0.20;;;15.50;99.90;;;;;;5074874;28;20501;-93
2022/05/17 06:26:44;;;;;;;0.30;0.20;;;15.40;99.90;;;;;;5074402;28;20574;-92
2022/05/17 06:29:11;;;;;;;0.30;0.20;;;15.50;99.90;;;;;;5073668;28;20515;-93
2022/05/17 06:31:40;;;;;;;0.30;0.20;;;15.50;99.90;;;;;;5078384;28;20849;-91
2022/05/17 06:34:07;;;;;;;0.43;0.43;;;15.40;99.90;;;;;;5074851;28;20455;-91
2022/05/17 06:36:33;;;;;;;0.30;0.20;;;15.40;99.90;;;;;;5076135;28;20705;-91
2022/05/17 06:39:01;;;;;;;0.30;0.20;;;15.50;99.90;;;;;;5088678;28;20434;-91
2022/05/17 06:41:28;;;;;;;0.30;0.20;;;15.50;99.90;;;;;;5096707;28;20460;-91
2022/05/17 06:43:55;;;;;;;0.30;0.20;;;15.50;99.90;;;;;;5089569;28;21132;-91
2022/05/17 06:46:22;;;;;;;0.30;0.20;;;15.40;99.90;;;;;;5079663;28;20461;-91
2022/05/17 06:48:50;;;;;;;0.30;0.30;;;15.50;99.90;;;;;;5091005;28;20444;-92
2022/05/17 06:51:18;;;;;;;0.40;0.30;;;15.50;99.90;;;;;;5103984;28;20456;-92
2022/05/17 06:53:46;;;;;;;0.40;0.30;;;15.50;99.90;;;;;;5100946;28;20566;-91
2022/05/17 06:56:13;;;;;;;0.50;0.50;;;15.50;99.90;;;;;;5101056;28;20456;-90
2022/05/17 06:58:40;;;;;;;0.30;0.20;;;15.60;99.90;;;;;;5097524;28;20444;-90
2022/05/17 07:01:07;;;;;;;0.93;0.83;;;15.60;99.90;;;;;;5088618;28;20502;-92
2022/05/17 07:03:34;;;;;;;0.30;0.20;;;15.60;99.90;;;;;;5096771;28;20482;-93
2022/05/17 07:06:03;;;;;;;0.30;0.23;;;15.70;99.90;;;;;;5098172;28;20436;-92
2022/05/17 07:08:30;;;;;;;0.40;0.20;;;15.80;99.90;;;;;;5093585;28;20468;-94
2022/05/17 07:13:41;;;;;;;0.40;0.40;;;15.80;99.90;;;;;;5106282;28;20428;-94
2022/05/17 07:16:09;;;;;;;0.30;0.20;;;15.90;99.90;;;;;;5099638;28;20450;-94
2022/05/17 07:18:36;;;;;;;0.30;0.20;;;16.00;99.90;;;;;;5094205;28;20450;-93
2022/05/17 07:21:05;;;;;;;0.30;0.20;;;16.10;99.90;;;;;;5092813;28;20502;-95
2022/05/17 07:23:32;;;;;;;0.30;0.20;;;16.00;99.90;;;;;;5093761;28;20467;-94
2022/05/17 07:25:59;;;;;;;0.30;0.20;;;16.10;99.90;;;;;;5094976;28;20482;-92
2022/05/17 07:28:26;;;;;;;0.30;0.20;;;16.20;99.90;;;;;;5097065;28;20448;-94
2022/05/17 07:30:53;;;;;;;0.30;0.20;;;16.20;99.90;;;;;;5097370;28;20552;-94
2022/05/17 07:33:20;;;;;;;0.30;0.30;;;16.20;99.90;;;;;;5094474;28;20444;-94
2022/05/17 07:35:48;;;;;;;0.70;0.60;;;16.10;99.90;;;;;;5099989;28;20686;-93
2022/05/17 07:38:18;;;;;;;0.30;0.20;;;16.10;99.90;;;;;;5093931;28;20460;-93
2022/05/17 07:40:45;;;;;;;0.30;0.20;;;16.10;99.90;;;;;;5094497;28;20534;-93
2022/05/17 07:43:13;;;;;;;0.30;0.20;;;16.20;99.90;;;;;;5090390;28;20491;-93
2022/05/17 07:45:40;;;;;;;0.30;0.20;;;16.20;99.90;;;;;;5089118;28;20469;-93
2022/05/17 07:48:07;;;;;;;0.30;0.20;;;16.20;99.90;;;;;;5084297;28;20494;-94
2022/05/17 07:50:35;;;;;;;0.30;0.20;;;16.20;99.90;;;;;;5097683;28;20470;-94
2022/05/17 07:53:09;;;;;;;0.30;0.20;;;16.10;99.90;;;;;;5090927;28;20454;-94
2022/05/17 07:55:39;;;;;;;0.30;0.20;;;16.00;99.90;;;;;;5089542;28;20464;-94
2022/05/17 07:58:07;;;;;;;0.30;0.20;;;16.00;99.90;;;;;;5094152;28;20461;-93
2022/05/17 08:00:34;;;;;;;0.30;0.20;;;16.10;99.90;;;;;;5098928;28;20564;-94
2022/05/17 08:03:01;;;;;;;0.30;0.20;;;16.00;99.90;;;;;;5100402;28;20457;-94
2022/05/17 08:05:29;;;;;;;0.30;0.20;;;16.10;99.90;;;;;;5089597;28;20438;-94
2022/05/17 08:07:57;;;;;;;1.07;0.67;;;16.10;99.90;;;;;;5089291;28;20476;-94
2022/05/17 08:10:24;;;;;;;0.30;0.20;;;16.10;99.90;;;;;;5089547;28;20457;-94
2022/05/17 08:12:53;;;;;;;0.30;0.20;;;16.10;99.90;;;;;;5094942;28;20649;-94
2022/05/17 08:15:23;;;;;;;0.30;0.20;;;16.20;99.90;;;;;;5107486;28;20489;-94
2022/05/17 08:17:50;;;;;;;0.30;0.20;;;16.20;99.90;;;;;;5103177;28;20456;-94
2022/05/17 08:20:18;;;;;;;0.50;0.50;;;16.40;99.90;;;;;;5093214;28;20475;-94
2022/05/17 08:22:47;;;;;;;0.30;0.20;;;16.30;99.90;;;;;;5095277;28;20442;-93
2022/05/17 08:28:02;;;;;;;0.30;0.20;;;16.40;99.90;;;;;;5053685;28;20443;-95
2022/05/17 08:30:32;;;;;;;0.30;0.20;;;16.50;99.90;;;;;;5097602;28;20865;-95
2022/05/17 08:33:16;;;;;;;0.30;0.20;;;16.70;99.90;;;;;;5088890;28;20504;-96
2022/05/17 08:35:46;;;;;;;0.30;0.20;;;16.70;99.90;;;;;;5099588;28;20476;-95
2022/05/17 08:38:16;;;;;;;0.30;0.20;;;16.80;99.90;;;;;;5102238;28;20493;-95
2022/05/17 08:40:58;;;;;;;0.30;0.20;;;16.90;99.90;;;;;;5104776;28;20515;-94
2022/05/17 08:43:31;;;;;;;0.30;0.30;;;17.00;99.90;;;;;;5101815;28;20475;-95
2022/05/17 08:46:14;;;;;;;0.50;0.50;;;17.10;99.90;;;;;;5110197;28;20439;-95
2022/05/17 08:48:49;;;;;;;0.30;0.20;;;17.00;99.90;;;;;;5102264;28;20657;-94
2022/05/17 08:51:25;;;;;;;0.30;0.20;;;17.00;99.90;;;;;;5099474;28;20464;-94
2022/05/17 08:53:53;;;;;;;0.40;0.30;;;17.10;99.90;;;;;;5096103;28;20564;-94
2022/05/17 08:56:21;;;;;;;0.30;0.20;;;17.10;99.90;;;;;;5093648;28;20453;-95
2022/05/17 08:58:52;;;;;;;0.30;0.20;;;16.90;99.90;;;;;;5098840;28;20455;-94
2022/05/17 09:01:24;;;;;;;0.50;0.50;;;16.90;99.90;;;;;;5102793;28;20480;-95
2022/05/17 09:04:01;;;;;;;0.30;0.20;;;16.90;99.90;;;;;;5106576;28;20486;-94
2022/05/17 09:06:33;;;;;;;0.30;0.20;;;16.80;99.90;;;;;;5104791;28;20475;-94
2022/05/17 09:09:05;;;;;;;0.30;0.20;;;16.70;99.90;;;;;;5096248;28;20452;-95
2022/05/17 09:11:38;;;;;;;0.30;0.20;;;16.60;99.90;;;;;;5108100;28;20509;-95
2022/05/17 09:14:12;;;;;;;0.30;0.20;;;16.60;99.90;;;;;;5106455;28;20460;-93
2022/05/17 09:16:42;;;;;;;0.30;0.20;;;16.60;99.90;;;;;;5093932;28;20483;-95
2022/05/17 09:19:09;;;;;;;0.40;0.20;;;16.70;99.90;;;;;;5099953;28;20519;-95
2022/05/17 09:21:42;;;;;;;0.30;0.20;;;16.90;99.90;;;;;;5099295;28;20480;-94
2022/05/17 09:24:12;;;;;;;0.30;0.20;;;17.00;99.90;;;;;;5102290;28;20477;-95
2022/05/17 09:26:40;;;;;;;0.30;0.30;;;17.10;99.90;;;;;;5098071;28;20488;-94
2022/05/17 09:29:17;;;;;;;0.30;0.20;;;17.00;99.90;;;;;;5095416;28;20467;-95
2022/05/17 09:31:52;;;;;;;1.00;0.70;;;17.20;99.90;;;;;;5101530;28;20466;-94
2022/05/17 09:34:28;;;;;;;0.30;0.20;;;16.90;99.90;;;;;;5096464;28;20461;-95
2022/05/17 09:36:56;;;;;;;0.30;0.20;;;16.80;99.90;;;;;;5097520;28;20454;-95
2022/05/17 09:39:26;;;;;;;0.30;0.20;;;16.80;99.90;;;;;;5092788;28;20453;-95
2022/05/17 09:41:57;;;;;;;0.30;0.20;;;16.70;99.90;;;;;;5098497;28;20502;-95
2022/05/17 09:44:27;;;;;;;0.30;0.20;;;16.60;99.90;;;;;;5097156;28;20473;-95
2022/05/17 09:46:59;;;;;;;0.30;0.20;;;16.40;99.90;;;;;;5096434;28;20476;-95
2022/05/17 09:52:38;;;;;;;0.30;0.20;;;16.10;99.90;;;;;;5101530;28;20467;-94
2022/05/17 09:55:21;;;;;;;0.50;0.50;;;16.10;99.90;;;;;;5097733;28;20470;-95
2022/05/17 09:58:02;;;;;;;0.40;0.30;;;16.10;99.90;;;;;;5104612;28;20560;-94
2022/05/17 10:00:35;;;;;;;0.30;0.20;;;16.00;99.90;;;;;;5099937;28;20520;-96
2022/05/17 10:03:05;;;;;;;0.30;0.20;;;16.00;99.90;;;;;;5099803;28;20442;-96
2022/05/17 10:05:46;;;;;;;0.30;0.20;;;15.90;99.90;;;;;;5104791;28;20498;-96
2022/05/17 10:08:34;;;;;;;0.30;0.20;;;15.80;99.90;;;;;;5096651;28;20453;-96
2022/05/17 10:11:16;;;;;;;0.40;0.30;;;15.80;99.90;;;;;;5098542;28;20501;-96
2022/05/17 10:14:02;;;;;;;0.30;0.20;;;15.90;99.90;;;;;;5105228;28;20449;-95
2022/05/17 10:16:37;;;;;;;0.30;0.20;;;16.00;99.90;;;;;;5102202;28;20468;-96
2022/05/17 10:19:10;;;;;;;0.60;0.30;;;16.10;99.90;;;;;;5100153;28;20460;-96
2022/05/17 10:21:45;;;;;;;0.30;0.20;;;16.30;99.90;;;;;;5104255;28;20480;-95
2022/05/17 10:24:20;;;;;;;0.30;0.20;;;16.40;99.90;;;;;;5100985;28;20504;-96
2022/05/17 10:26:51;;;;;;;0.30;0.20;;;16.50;99.90;;;;;;5082332;28;20476;-95
2022/05/17 10:29:29;;;;;;;0.30;0.20;;;16.60;99.90;;;;;;5071744;28;20508;-96
2022/05/17 10:32:06;;;;;;;0.30;0.20;;;16.60;99.90;;;;;;5075877;28;20453;-96
2022/05/17 10:34:43;;;;;;;0.50;0.50;;;16.50;99.90;;;;;;5079243;28;20503;-95
2022/05/17 10:37:14;;;;;;;0.63;0.63;;;16.70;99.90;;;;;;5073643;28;20463;-93
2022/05/17 10:39:49;;;;;;;0.30;0.20;;;16.90;99.90;;;;;;5074253;28;20456;-95
2022/05/17 10:42:17;;;;;;;0.30;0.20;;;17.10;99.90;;;;;;5069382;28;20501;-96
2022/05/17 10:44:47;;;;;;;0.30;0.20;;;17.40;99.90;;;;;;5074795;28;20471;-94
2022/05/17 10:47:26;;;;;;;0.37;0.23;;;17.50;99.90;;;;;;5073832;28;20528;-95
2022/05/17 10:50:16;;;;;;;0.50;0.20;;;17.60;99.90;;;;;;5070572;28;20852;-95
2022/05/17 10:52:55;;;;;;;0.30;0.20;;;17.70;99.90;;;;;;5071397;28;20459;-93
2022/05/17 10:55:29;;;;;;;0.50;0.40;;;18.10;99.90;;;;;;5070301;28;20502;-93
2022/05/17 10:58:00;;;;;;;0.30;0.20;;;18.70;99.90;;;;;;5074724;28;20461;-93
2022/05/17 11:00:33;;;;;;;0.40;0.30;;;19.20;99.90;;;;;;5074145;28;20490;-93
2022/05/17 11:03:29;;;;;;;0.40;0.30;;;19.00;99.90;;;;;;5076389;28;20925;-93
2022/05/17 11:06:08;;;;;;;0.70;0.70;;;19.10;99.90;;;;;;5082010;28;20524;-93
2022/05/17 11:08:40;;;;;;;0.30;0.30;;;18.60;99.90;;;;;;5076935;28;20507;-94
2022/05/17 11:11:23;;;;;;;0.73;0.73;;;18.60;99.90;;;;;;5072841;28;20515;-95
2022/05/17 11:13:55;;;;;;;0.30;0.20;;;19.10;99.90;;;;;;5067870;28;20859;-94
2022/05/17 11:16:29;;;;;;;0.40;0.30;;;19.30;99.90;;;;;;5072402;28;20497;-94
2022/05/17 11:19:04;;;;;;;0.30;0.20;;;19.50;99.90;;;;;;5073345;28;20460;-94
2022/05/17 11:21:36;;;;;;;0.40;0.20;;;19.80;99.90;;;;;;5069766;28;20584;-95
2022/05/17 11:24:16;;;;;;;0.30;0.20;;;20.00;99.90;;;;;;5067884;28;20850;-94
2022/05/17 11:27:23;;;;;;;0.40;0.30;;;20.10;99.90;;;;;;5068572;28;20454;-93
2022/05/17 11:30:13;;;;;;;0.50;0.30;;;20.50;99.90;;;;;;5062830;28;21024;-93
2022/05/17 11:32:42;;;;;;;0.53;0.53;;;20.70;99.90;;;;;;5073288;28;20461;-93
2022/05/17 11:35:39;;;;;;;0.30;0.30;;;20.60;99.90;;;;;;5077334;28;20559;-93
2022/05/17 11:38:08;;;;;;;0.30;0.20;;;20.90;99.90;;;;;;5075500;28;20473;-93
2022/05/17 11:40:54;;;;;;;0.40;0.30;;;21.20;99.90;;;;;;5067422;28;20474;-94
2022/05/17 11:43:43;;;;;;;0.40;0.30;;;21.60;99.90;;;;;;5073295;28;20449;-93
2022/05/17 11:46:43;;;;;;;0.30;0.20;;;21.30;99.90;;;;;;5068729;28;20931;-94
2022/05/17 11:49:47;;;;;;;0.40;0.30;;;21.20;99.90;;;;;;5083106;28;20450;-94
2022/05/17 11:52:27;;;;;;;0.30;0.20;;;21.30;99.90;;;;;;5070252;28;20585;-93
2022/05/17 11:54:56;;;;;;;0.30;0.20;;;21.30;99.90;;;;;;5075319;28;20477;-93
2022/05/17 11:57:59;;;;;;;0.40;0.20;;;21.40;99.90;;;;;;5067947;28;20463;-93
2022/05/17 12:00:48;;;;;;;0.30;0.20;;;21.60;99.90;;;;;;5083593;28;21100;-93
2022/05/17 12:03:41;;;;;;;0.40;0.40;;;21.40;99.90;;;;;;5079030;28;20478;-93
2022/05/17 12:06:11;;;;;;;0.30;0.20;;;21.60;99.90;;;;;;5086047;28;20459;-93
2022/05/17 12:08:43;;;;;;;0.30;0.20;;;21.10;99.90;;;;;;5085429;28;20441;-94
2022/05/17 12:11:27;;;;;;;0.40;0.20;;;21.30;99.90;;;;;;5071168;28;21172;-94
2022/05/17 12:13:56;;;;;;;0.83;0.40;;;21.30;99.90;;;;;;5080700;28;20439;-94
2022/05/17 12:16:25;;;;;;;0.40;0.30;;;21.30;99.90;;;;;;5065271;28;20461;-94
2022/05/17 12:18:55;;;;;;;0.30;0.20;;;21.20;99.90;;;;;;5067237;28;20456;-94
2022/05/17 12:21:44;;;;;;;0.30;0.20;;;21.50;99.90;;;;;;5065167;28;20556;-94
2022/05/17 12:24:42;;;;;;;0.30;0.20;;;21.60;99.90;;;;;;5071056;28;21166;-93
2022/05/17 12:27:20;;;;;;;0.40;0.20;;;21.80;99.70;;;;;;5079209;28;20519;-93
2022/05/17 12:32:38;;;;;;;0.40;0.30;;;22.20;99.90;;;;;;5073103;28;20450;-93
2022/05/17 12:35:08;;;;;;;0.40;0.30;;;22.00;97.80;;;;;;5070938;28;20459;-93
2022/05/17 12:37:41;;;;;;;0.40;0.30;;;22.10;97.40;;;;;;5079431;28;20451;-93
2022/05/17 12:43:07;;;;;;;0.30;0.30;;;21.90;96.30;;;;;;5095568;28;20493;-94
2022/05/17 12:45:38;;;;;;;0.40;0.20;;;22.30;97.80;;;;;;5102738;28;20470;-93
2022/05/17 12:48:15;;;;;;;0.40;0.20;;;22.30;96.10;;;;;;5093125;28;20534;-94
2022/05/17 12:50:45;;;;;;;0.40;0.30;;;22.00;95.40;;;;;;5086173;28;20458;-94
2022/05/17 12:53:20;;;;;;;0.30;0.20;;;21.90;96.60;;;;;;5072854;28;20851;-94
2022/05/17 12:56:06;;;;;;;0.30;0.20;;;21.70;96.10;;;;;;5067561;28;20459;-94
2022/05/17 12:58:35;;;;;;;0.40;0.20;;;22.10;97.90;;;;;;5066253;28;20934;-94
2022/05/17 13:01:03;;;;;;;0.40;0.20;;;22.10;96.30;;;;;;5081853;28;20439;-95
2022/05/17 13:03:32;;;;;;;0.83;0.83;;;22.30;97.50;;;;;;5064821;28;20471;-95
2022/05/17 13:06:03;;;;;;;0.40;0.20;;;22.20;95.40;;;;;;5073913;28;20467;-94
2022/05/17 13:08:32;;;;;;;0.60;0.30;;;22.30;94.10;;;;;;5066892;28;20480;-94
2022/05/17 13:11:06;;;;;;;0.40;0.20;;;22.40;95.30;;;;;;5067277;28;20525;-94
2022/05/17 13:13:35;;;;;;;0.50;0.30;;;22.50;94.30;;;;;;5067174;28;20450;-95
2022/05/17 13:16:05;;;;;;;0.40;0.30;;;22.40;93.20;;;;;;5067149;28;20459;-95
2022/05/17 13:18:39;;;;;;;0.40;0.20;;;22.20;92.30;;;;;;5070363;28;20462;-94
2022/05/17 13:21:22;;;;;;;0.40;0.30;;;22.10;92.80;;;;;;5079794;28;20520;-93
2022/05/17 13:23:51;;;;;;;0.50;0.30;;;22.30;94.70;;;;;;5079486;28;20568;-94